createdAt,value
2022-09-10T00:02:04.250Z,19.14
2022-09-10T00:04:04.275Z,19.18
2022-09-10T00:06:04.205Z,19.2
2022-09-10T00:08:04.217Z,19.16
2022-09-10T00:10:04.206Z,19.16
2022-09-10T00:12:04.192Z,19.09
2022-09-10T00:14:04.250Z,18.96
2022-09-10T00:16:46.137Z,19.12
2022-09-10T00:18:46.156Z,19.14
2022-09-10T00:20:46.146Z,19.22
2022-09-10T00:22:46.201Z,19.29
2022-09-10T00:24:46.222Z,19.23
2022-09-10T00:26:46.125Z,19.12
2022-09-10T00:28:46.162Z,18.8
2022-09-10T00:31:46.413Z,19.02
2022-09-10T00:33:46.400Z,19.09
2022-09-10T00:35:46.354Z,19.14
2022-09-10T00:37:46.414Z,19.07
2022-09-10T00:39:46.453Z,19.09
2022-09-10T00:41:46.354Z,19.09
2022-09-10T00:43:46.343Z,19.14
2022-09-10T00:46:48.026Z,19.14
2022-09-10T00:48:47.892Z,19.17
2022-09-10T00:50:47.914Z,19.11
2022-09-10T00:52:47.904Z,19.09
2022-09-10T00:54:48.012Z,18.98
2022-09-10T00:56:47.920Z,19.12
2022-09-10T00:58:47.888Z,18.88
2022-09-10T01:00:47.958Z,19.01
2022-09-10T01:02:33.876Z,19.13
2022-09-10T01:04:33.930Z,19.16
2022-09-10T01:06:33.859Z,19.11
2022-09-10T01:08:33.859Z,19.2
2022-09-10T01:10:33.910Z,19.28
2022-09-10T01:12:35.942Z,19.29
2022-09-10T01:14:33.898Z,19.35
2022-09-10T01:17:18.947Z,19.39
2022-09-10T01:19:18.775Z,19.4
2022-09-10T01:21:18.702Z,19.34
2022-09-10T01:23:18.706Z,19.39
2022-09-10T01:25:18.642Z,19.32
2022-09-10T01:27:18.699Z,19.26
2022-09-10T01:29:18.705Z,19.28
2022-09-10T01:32:23.926Z,19.24
2022-09-10T01:34:23.924Z,19.14
2022-09-10T01:36:23.926Z,19.19
2022-09-10T01:38:23.917Z,19.19
2022-09-10T01:40:23.932Z,19.15
2022-09-10T01:42:23.975Z,19.23
2022-09-10T01:44:23.987Z,19.25
2022-09-10T01:46:23.903Z,19.21
2022-09-10T01:47:37.216Z,19.27
2022-09-10T01:49:36.967Z,19.25
2022-09-10T01:51:37.389Z,19.16
2022-09-10T01:53:36.858Z,19.07
2022-09-10T01:55:36.847Z,19.02
2022-09-10T01:57:36.908Z,19.04
2022-09-10T01:59:37.014Z,19.16
2022-09-10T02:03:01.963Z,19.22
2022-09-10T02:05:01.744Z,19.15
2022-09-10T02:07:01.738Z,19.04
2022-09-10T02:09:01.788Z,18.93
2022-09-10T02:11:01.739Z,18.97
2022-09-10T02:13:01.814Z,18.99
2022-09-10T02:15:01.782Z,18.89
2022-09-10T02:18:19.396Z,19.02
2022-09-10T02:20:19.526Z,19.13
2022-09-10T02:22:19.383Z,19.03
2022-09-10T02:24:19.393Z,19.07
2022-09-10T02:26:19.422Z,19.06
2022-09-10T02:28:19.534Z,19.07
2022-09-10T02:30:19.387Z,19.13
2022-09-10T02:33:38.590Z,18.96
2022-09-10T02:35:38.581Z,18.64
2022-09-10T02:37:38.585Z,18.81
2022-09-10T02:39:38.718Z,18.91
2022-09-10T02:41:38.586Z,18.93
2022-09-10T02:43:38.676Z,18.83
2022-09-10T02:45:38.618Z,18.91
2022-09-10T02:49:01.820Z,19.07
2022-09-10T02:51:01.849Z,18.93
2022-09-10T02:53:01.792Z,18.91
2022-09-10T02:55:01.829Z,18.83
2022-09-10T02:57:01.885Z,18.85
2022-09-10T02:59:01.824Z,18.73
2022-09-10T03:01:01.858Z,18.83
2022-09-10T03:03:22.324Z,18.84
2022-09-10T03:05:22.480Z,18.88
2022-09-10T03:07:22.419Z,18.87
2022-09-10T03:09:22.479Z,18.87
2022-09-10T03:11:22.479Z,18.81
2022-09-10T03:13:22.690Z,18.82
2022-09-10T03:15:22.346Z,18.94
2022-09-10T03:17:22.325Z,18.88
2022-09-10T03:19:24.419Z,18.04
2022-09-10T03:21:25.554Z,17.73
2022-09-10T03:23:24.474Z,17.6
2022-09-10T03:25:24.405Z,17.27
2022-09-10T03:27:24.439Z,17.47
2022-09-10T03:29:24.435Z,17.38
2022-09-10T03:31:24.457Z,17.73
2022-09-10T03:33:56.000Z,18.2
2022-09-10T03:35:56.030Z,18.43
2022-09-10T03:37:56.024Z,18.65
2022-09-10T03:39:56.027Z,18.63
2022-09-10T03:41:55.978Z,18.67
2022-09-10T03:43:56.187Z,18.83
2022-09-10T03:45:56.027Z,18.74
2022-09-10T03:49:01.572Z,18.89
2022-09-10T03:51:01.632Z,19.01
2022-09-10T03:53:01.532Z,19.06
2022-09-10T03:55:01.573Z,18.88
2022-09-10T03:57:01.533Z,18.72
2022-09-10T03:59:01.560Z,18.77
2022-09-10T04:01:01.604Z,18.87
2022-09-10T04:04:03.586Z,19.03
2022-09-10T04:06:03.571Z,19.09
2022-09-10T04:08:03.693Z,18.93
2022-09-10T04:10:03.675Z,18.85
2022-09-10T04:12:03.706Z,19.05
2022-09-10T04:14:03.725Z,19.13
2022-09-10T04:16:03.894Z,19.24
2022-09-10T04:20:00.993Z,19.09
2022-09-10T04:22:01.001Z,18.9
2022-09-10T04:24:00.924Z,18.96
2022-09-10T04:26:00.932Z,19.03
2022-09-10T04:28:00.939Z,19.06
2022-09-10T04:30:00.944Z,19.15
2022-09-10T04:32:00.953Z,19.29
2022-09-10T04:34:52.979Z,19.21
2022-09-10T04:36:53.018Z,19.01
2022-09-10T04:38:52.986Z,19.15
2022-09-10T04:40:52.962Z,19.27
2022-09-10T04:42:52.990Z,19.18
2022-09-10T04:44:53.010Z,19.31
2022-09-10T04:46:52.948Z,19.4
2022-09-10T04:50:06.421Z,19.37
2022-09-10T04:52:06.429Z,19.47
2022-09-10T04:54:06.467Z,19.53
2022-09-10T04:56:06.445Z,19.52
2022-09-10T04:58:06.440Z,19.51
2022-09-10T05:00:06.457Z,19.52
2022-09-10T05:02:06.434Z,19.4
2022-09-10T05:05:06.095Z,19.51
2022-09-10T05:07:05.985Z,19.51
2022-09-10T05:09:05.974Z,19.55
2022-09-10T05:11:06.052Z,19.59
2022-09-10T05:13:06.043Z,19.55
2022-09-10T05:15:06.032Z,19.63
2022-09-10T05:17:05.970Z,19.6
2022-09-10T05:19:59.907Z,19.79
2022-09-10T05:21:59.944Z,19.78
2022-09-10T05:24:00.032Z,19.61
2022-09-10T05:25:59.950Z,19.77
2022-09-10T05:27:59.927Z,19.83
2022-09-10T05:29:59.955Z,19.51
2022-09-10T05:31:59.994Z,19.06
2022-09-10T05:35:27.255Z,19.28
2022-09-10T05:37:27.215Z,19.57
2022-09-10T05:39:27.199Z,19.66
2022-09-10T05:41:27.182Z,19.89
2022-09-10T05:43:27.156Z,19.63
2022-09-10T05:45:27.236Z,19.34
2022-09-10T05:47:27.164Z,19.12
2022-09-10T05:50:21.255Z,19.75
2022-09-10T05:52:21.287Z,20.31
2022-09-10T05:54:21.255Z,20.77
2022-09-10T05:56:21.296Z,20.75
2022-09-10T05:58:21.270Z,20.84
2022-09-10T06:00:21.244Z,20.83
2022-09-10T06:02:24.069Z,20.79
2022-09-10T06:05:39.099Z,20.99
2022-09-10T06:07:39.118Z,21.25
2022-09-10T06:09:39.094Z,21.02
2022-09-10T06:11:39.083Z,20.94
2022-09-10T06:13:39.223Z,20.77
2022-09-10T06:15:39.252Z,20.61
2022-09-10T06:17:39.101Z,20.76
2022-09-10T06:21:19.680Z,20.55
2022-09-10T06:23:19.802Z,20.69
2022-09-10T06:25:19.770Z,21.02
2022-09-10T06:27:19.632Z,21.29
2022-09-10T06:29:19.590Z,21.52
2022-09-10T06:31:19.742Z,21.73
2022-09-10T06:33:19.529Z,21.93
2022-09-10T06:36:08.948Z,22.36
2022-09-10T06:38:08.945Z,22.6
2022-09-10T06:40:08.972Z,22.64
2022-09-10T06:42:08.902Z,22.37
2022-09-10T06:44:08.912Z,22.17
2022-09-10T06:46:19.234Z,22.21
2022-09-10T06:50:45.712Z,22.77
2022-09-10T06:52:45.555Z,22.41
2022-09-10T06:54:45.485Z,22.34
2022-09-10T06:56:45.634Z,22.58
2022-09-10T06:58:45.461Z,23.11
2022-09-10T07:00:45.549Z,23.26
2022-09-10T07:02:45.487Z,22.87
2022-09-10T07:04:45.487Z,22.6
2022-09-10T07:06:52.457Z,22.66
2022-09-10T07:08:52.415Z,22.63
2022-09-10T07:10:52.457Z,22.6
2022-09-10T07:12:52.450Z,23.11
2022-09-10T07:14:52.421Z,23.12
2022-09-10T07:16:52.419Z,23.14
2022-09-10T07:18:52.462Z,22.78
2022-09-10T07:21:04.585Z,22.8
2022-09-10T07:23:04.555Z,23.06
2022-09-10T07:25:04.534Z,23
2022-09-10T07:27:04.555Z,23.48
2022-09-10T07:29:04.648Z,24.09
2022-09-10T07:31:04.587Z,24.79
2022-09-10T07:33:04.536Z,25.05
2022-09-10T07:35:04.551Z,25.34
2022-09-10T07:36:31.407Z,24.66
2022-09-10T07:38:31.404Z,24.58
2022-09-10T07:40:31.427Z,24.63
2022-09-10T07:42:31.367Z,24.53
2022-09-10T07:44:31.461Z,23.91
2022-09-10T07:46:31.359Z,23.95
2022-09-10T07:48:31.439Z,24.08
2022-09-10T07:52:00.063Z,24.37
2022-09-10T07:53:58.935Z,24.48
2022-09-10T07:55:59.117Z,24.82
2022-09-10T07:58:00.157Z,25.19
2022-09-10T07:59:59.143Z,25.13
2022-09-10T08:01:59.123Z,25.26
2022-09-10T08:03:59.448Z,25.44
2022-09-10T08:06:41.038Z,25.52
2022-09-10T08:08:41.102Z,24.87
2022-09-10T08:10:41.007Z,25.05
2022-09-10T08:12:40.973Z,25.22
2022-09-10T08:14:40.974Z,25.31
2022-09-10T08:16:44.253Z,25.43
2022-09-10T08:18:41.082Z,25.52
2022-09-10T08:20:40.961Z,25.92
2022-09-10T08:21:48.932Z,25.61
2022-09-10T08:23:48.913Z,24.8
2022-09-10T08:25:48.934Z,24.92
2022-09-10T08:27:48.885Z,24.93
2022-09-10T08:29:48.889Z,25.48
2022-09-10T08:31:48.942Z,25.63
2022-09-10T08:33:48.906Z,26.57
2022-09-10T08:35:48.895Z,27.06
2022-09-10T08:37:37.527Z,27.65
2022-09-10T08:39:37.548Z,27.7
2022-09-10T08:41:37.516Z,27.53
2022-09-10T08:43:37.527Z,27.75
2022-09-10T08:45:37.596Z,27.31
2022-09-10T08:47:37.535Z,27.3
2022-09-10T08:49:37.527Z,27.26
2022-09-10T08:53:00.124Z,27.04
2022-09-10T08:55:00.223Z,27.07
2022-09-10T08:57:00.160Z,27.03
2022-09-10T08:59:00.144Z,26.88
2022-09-10T09:01:00.151Z,26.82
2022-09-10T09:03:00.199Z,26.76
2022-09-10T09:05:00.120Z,26.59
2022-09-10T09:07:16.688Z,26.74
2022-09-10T09:09:16.654Z,26.83
2022-09-10T09:11:16.766Z,27.09
2022-09-10T09:13:16.650Z,27.12
2022-09-10T09:15:16.650Z,27.17
2022-09-10T09:17:16.692Z,27.11
2022-09-10T09:19:16.636Z,27.15
2022-09-10T09:21:16.692Z,27.1
2022-09-10T09:22:29.074Z,27.18
2022-09-10T09:24:29.591Z,27.21
2022-09-10T09:26:29.218Z,27.11
2022-09-10T09:28:28.962Z,27.27
2022-09-10T09:30:28.989Z,27.76
2022-09-10T09:32:28.944Z,28.14
2022-09-10T09:34:28.975Z,28.38
2022-09-10T09:36:29.619Z,28.64
2022-09-10T09:37:52.630Z,28.94
2022-09-10T09:39:53.074Z,29.1
2022-09-10T09:41:52.638Z,29.14
2022-09-10T09:43:52.668Z,29.18
2022-09-10T09:45:52.643Z,29.28
2022-09-10T09:47:52.608Z,29.42
2022-09-10T09:49:52.845Z,29.66
2022-09-10T09:53:32.475Z,29.64
2022-09-10T09:55:32.510Z,29.86
2022-09-10T09:57:32.507Z,29.91
2022-09-10T09:59:32.740Z,29.93
2022-09-10T10:01:32.568Z,29.58
2022-09-10T10:03:32.505Z,29.57
2022-09-10T10:05:32.486Z,29.82
2022-09-10T10:07:50.505Z,29.92
2022-09-10T10:09:50.342Z,29.64
2022-09-10T10:11:50.378Z,29.94
2022-09-10T10:13:50.308Z,29.77
2022-09-10T10:15:50.314Z,29.92
2022-09-10T10:17:50.317Z,29.93
2022-09-10T10:19:50.341Z,29.81
2022-09-10T10:21:50.426Z,29.66
2022-09-10T10:23:55.808Z,29.67
2022-09-10T10:25:55.830Z,29.34
2022-09-10T10:27:55.831Z,29.42
2022-09-10T10:29:55.900Z,29.15
2022-09-10T10:31:55.874Z,29.23
2022-09-10T10:33:55.848Z,29.48
2022-09-10T10:35:55.831Z,29.69
2022-09-10T10:38:14.809Z,29.98
2022-09-10T10:40:14.743Z,30.41
2022-09-10T10:42:14.772Z,30.55
2022-09-10T10:44:14.752Z,30.91
2022-09-10T10:46:14.809Z,30.8
2022-09-10T10:48:14.815Z,30.35
2022-09-10T10:50:14.779Z,30.26
2022-09-10T10:52:14.739Z,30.27
2022-09-10T10:54:05.250Z,30.16
2022-09-10T10:56:05.649Z,30.43
2022-09-10T10:58:05.268Z,30.6
2022-09-10T11:00:05.430Z,30.66
2022-09-10T11:02:06.596Z,30.92
2022-09-10T11:04:05.295Z,30.81
2022-09-10T11:06:05.355Z,30.74
2022-09-10T11:09:15.831Z,30.52
2022-09-10T11:11:15.822Z,30.61
2022-09-10T11:13:15.750Z,30.7
2022-09-10T11:15:15.813Z,30.76
2022-09-10T11:17:15.788Z,30.63
2022-09-10T11:19:15.830Z,30.89
2022-09-10T11:21:15.819Z,30.73
2022-09-10T11:23:46.892Z,30.97
2022-09-10T11:25:46.882Z,30.87
2022-09-10T11:27:46.996Z,30.98
2022-09-10T11:29:46.870Z,31.03
2022-09-10T11:31:47.008Z,30.88
2022-09-10T11:33:46.954Z,31.05
2022-09-10T11:35:46.874Z,31.23
2022-09-10T11:38:48.734Z,31.28
2022-09-10T11:40:48.748Z,31.1
2022-09-10T11:42:48.731Z,30.56
2022-09-10T11:44:48.728Z,31.06
2022-09-10T11:46:48.720Z,31.3
2022-09-10T11:48:48.714Z,31.11
2022-09-10T11:50:48.759Z,31.22
2022-09-10T11:52:48.708Z,31.42
2022-09-10T11:54:32.602Z,31.56
2022-09-10T11:56:32.686Z,31.32
2022-09-10T11:58:32.594Z,31.13
2022-09-10T12:00:32.587Z,30.82
2022-09-10T12:02:32.668Z,30.77
2022-09-10T12:04:34.858Z,30.84
2022-09-10T12:06:32.668Z,30.77
2022-09-10T12:09:19.104Z,30.85
2022-09-10T12:11:19.076Z,30.99
2022-09-10T12:13:18.947Z,30.99
2022-09-10T12:15:18.512Z,30.67
2022-09-10T12:17:18.519Z,30.79
2022-09-10T12:19:18.623Z,30.75
2022-09-10T12:21:18.650Z,30.67
2022-09-10T12:25:08.691Z,30.59
2022-09-10T12:27:08.692Z,30.52
2022-09-10T12:29:08.744Z,30.49
2022-09-10T12:31:08.798Z,30.19
2022-09-10T12:33:08.648Z,30.36
2022-09-10T12:35:08.739Z,30.37
2022-09-10T12:37:08.628Z,30.52
2022-09-10T12:40:12.482Z,30.47
2022-09-10T12:42:08.567Z,30.22
2022-09-10T12:44:08.557Z,30.36
2022-09-10T12:46:08.671Z,30.74
2022-09-10T12:48:08.530Z,30.47
2022-09-10T12:50:08.538Z,30.3
2022-09-10T12:52:08.524Z,30.17
2022-09-10T12:54:55.105Z,30.41
2022-09-10T12:56:54.670Z,30.28
2022-09-10T12:58:54.737Z,30.38
2022-09-10T13:00:54.733Z,30.55
2022-09-10T13:02:54.699Z,30.73
2022-09-10T13:04:54.743Z,30.35
2022-09-10T13:06:54.675Z,30.44
2022-09-10T13:09:44.545Z,30.41
2022-09-10T13:11:44.491Z,30.45
2022-09-10T13:13:44.554Z,30.52
2022-09-10T13:15:44.532Z,30.31
2022-09-10T13:17:44.499Z,30.24
2022-09-10T13:19:44.482Z,30.34
2022-09-10T13:21:44.674Z,30.52
2022-09-10T13:23:44.521Z,30.52
2022-09-10T13:25:11.754Z,30.56
2022-09-10T13:27:11.744Z,30.82
2022-09-10T13:29:11.807Z,30.85
2022-09-10T13:31:11.887Z,30.73
2022-09-10T13:33:11.787Z,30.86
2022-09-10T13:35:11.817Z,30.72
2022-09-10T13:37:11.759Z,30.51
2022-09-10T13:40:21.742Z,30.47
2022-09-10T13:42:21.636Z,30.53
2022-09-10T13:44:21.543Z,30.74
2022-09-10T13:46:21.816Z,30.55
2022-09-10T13:48:21.584Z,30.72
2022-09-10T13:50:21.564Z,30.5
2022-09-10T13:52:21.638Z,30.75
2022-09-10T13:55:44.203Z,30.79
2022-09-10T13:57:44.188Z,30.96
2022-09-10T13:59:44.344Z,30.85
2022-09-10T14:01:44.352Z,30.6
2022-09-10T14:03:44.198Z,30.57
2022-09-10T14:05:44.293Z,30.56
2022-09-10T14:07:44.161Z,30.4
2022-09-10T14:10:49.722Z,30.24
2022-09-10T14:12:49.689Z,30.38
2022-09-10T14:14:49.678Z,30.37
2022-09-10T14:16:49.700Z,30.45
2022-09-10T14:18:49.799Z,30.49
2022-09-10T14:20:49.666Z,30.13
2022-09-10T14:22:49.688Z,30.1
2022-09-10T14:26:31.418Z,29.53
2022-09-10T14:28:31.377Z,29.72
2022-09-10T14:30:31.852Z,29.75
2022-09-10T14:32:31.399Z,29.58
2022-09-10T14:34:31.379Z,29.68
2022-09-10T14:36:31.384Z,29.5
2022-09-10T14:38:31.381Z,29.49
2022-09-10T14:40:52.903Z,29.49
2022-09-10T14:42:52.918Z,29.4
2022-09-10T14:44:52.926Z,29.43
2022-09-10T14:46:52.889Z,29.42
2022-09-10T14:48:52.908Z,29.52
2022-09-10T14:50:52.945Z,29.42
2022-09-10T14:52:52.887Z,29.28
2022-09-10T14:54:52.906Z,29.3
2022-09-10T14:56:05.354Z,29.2
2022-09-10T14:58:05.217Z,29
2022-09-10T15:00:05.240Z,28.82
2022-09-10T15:02:05.287Z,28.84
2022-09-10T15:04:05.245Z,28.93
2022-09-10T15:06:05.212Z,28.87
2022-09-10T15:08:05.208Z,28.79
2022-09-10T15:11:58.940Z,28.51
2022-09-10T15:13:58.947Z,28.48
2022-09-10T15:15:58.915Z,28.49
2022-09-10T15:17:59.039Z,28.46
2022-09-10T15:19:58.983Z,28.37
2022-09-10T15:21:58.897Z,28.36
2022-09-10T15:23:58.987Z,28.2
2022-09-10T15:26:58.595Z,28.23
2022-09-10T15:28:58.588Z,28.12
2022-09-10T15:30:58.655Z,28.11
2022-09-10T15:32:58.588Z,28.18
2022-09-10T15:34:58.645Z,28.05
2022-09-10T15:36:58.643Z,28.03
2022-09-10T15:38:58.579Z,28.02
2022-09-10T15:41:40.786Z,27.87
2022-09-10T15:43:41.574Z,27.86
2022-09-10T15:45:40.784Z,27.88
2022-09-10T15:47:43.107Z,27.84
2022-09-10T15:49:40.781Z,27.83
2022-09-10T15:51:40.773Z,27.82
2022-09-10T15:53:41.043Z,27.69
2022-09-10T15:56:57.880Z,27.83
2022-09-10T15:58:57.913Z,27.85
2022-09-10T16:00:57.878Z,27.8
2022-09-10T16:02:57.975Z,27.79
2022-09-10T16:04:57.939Z,27.73
2022-09-10T16:06:57.874Z,27.67
2022-09-10T16:08:57.908Z,27.61
2022-09-10T16:12:45.305Z,27.34
2022-09-10T16:14:45.262Z,27.25
2022-09-10T16:16:45.244Z,27.19
2022-09-10T16:18:45.212Z,27.08
2022-09-10T16:20:45.246Z,27.01
2022-09-10T16:22:45.247Z,26.86
2022-09-10T16:24:45.261Z,26.67
2022-09-10T16:27:12.502Z,26.37
2022-09-10T16:29:12.440Z,26.33
2022-09-10T16:31:12.437Z,26.01
2022-09-10T16:33:12.464Z,26.02
2022-09-10T16:35:12.417Z,25.94
2022-09-10T16:37:12.507Z,25.88
2022-09-10T16:39:12.589Z,25.87
2022-09-10T16:43:00.680Z,25.73
2022-09-10T16:45:00.788Z,25.51
2022-09-10T16:47:00.673Z,25.43
2022-09-10T16:49:00.657Z,25.47
2022-09-10T16:51:00.711Z,25.5
2022-09-10T16:53:00.702Z,25.56
2022-09-10T16:55:00.699Z,25.62
2022-09-10T16:57:26.761Z,25.54
2022-09-10T16:59:26.774Z,25.33
2022-09-10T17:01:26.780Z,25.27
2022-09-10T17:03:26.753Z,25.34
2022-09-10T17:05:26.790Z,25.34
2022-09-10T17:07:26.747Z,25.31
2022-09-10T17:09:26.740Z,25.24
2022-09-10T17:12:43.230Z,25.07
2022-09-10T17:14:43.288Z,25.08
2022-09-10T17:16:43.213Z,25.05
2022-09-10T17:18:43.278Z,25.1
2022-09-10T17:20:43.246Z,25.15
2022-09-10T17:22:43.226Z,25.09
2022-09-10T17:24:43.207Z,25.08
2022-09-10T17:28:16.502Z,24.96
2022-09-10T17:30:16.562Z,24.89
2022-09-10T17:32:16.493Z,24.81
2022-09-10T17:34:16.484Z,24.62
2022-09-10T17:36:16.478Z,24.57
2022-09-10T17:38:16.471Z,24.52
2022-09-10T17:40:16.502Z,24.43
2022-09-10T17:43:27.544Z,24.36
2022-09-10T17:45:28.830Z,24.28
2022-09-10T17:47:26.991Z,24.3
2022-09-10T17:49:27.036Z,24.23
2022-09-10T17:51:26.975Z,24.11
2022-09-10T17:53:30.899Z,24.06
2022-09-10T17:55:29.436Z,24.03
2022-09-10T17:58:12.624Z,23.95
2022-09-10T18:00:12.698Z,23.9
2022-09-10T18:02:12.673Z,23.84
2022-09-10T18:04:12.643Z,23.77
2022-09-10T18:06:12.643Z,23.73
2022-09-10T18:08:12.727Z,23.65
2022-09-10T18:10:12.679Z,23.59
2022-09-10T18:13:56.720Z,23.46
2022-09-10T18:15:56.683Z,23.42
2022-09-10T18:17:56.668Z,23.37
2022-09-10T18:19:56.748Z,23.26
2022-09-10T18:21:56.651Z,23.18
2022-09-10T18:23:56.630Z,23.13
2022-09-10T18:25:56.623Z,23.08
2022-09-10T18:28:59.725Z,22.93
2022-09-10T18:30:59.871Z,22.85
2022-09-10T18:32:59.752Z,22.82
2022-09-10T18:34:59.747Z,22.77
2022-09-10T18:36:59.805Z,22.68
2022-09-10T18:38:59.717Z,22.62
2022-09-10T18:40:59.731Z,22.48
2022-09-10T18:43:50.321Z,22.34
2022-09-10T18:45:50.237Z,22.25
2022-09-10T18:47:50.403Z,22.26
2022-09-10T18:49:50.287Z,22.21
2022-09-10T18:51:50.298Z,22.15
2022-09-10T18:53:50.260Z,22.09
2022-09-10T18:55:50.291Z,21.93
2022-09-10T18:59:30.911Z,21.83
2022-09-10T19:01:30.943Z,21.78
2022-09-10T19:03:30.863Z,21.67
2022-09-10T19:05:30.899Z,21.78
2022-09-10T19:07:30.861Z,21.69
2022-09-10T19:09:30.931Z,21.82
2022-09-10T19:11:30.857Z,21.73
2022-09-10T19:13:44.515Z,21.52
2022-09-10T19:15:44.579Z,21.62
2022-09-10T19:17:44.521Z,21.47
2022-09-10T19:19:44.588Z,21.6
2022-09-10T19:21:44.834Z,21.4
2022-09-10T19:23:44.514Z,21.39
2022-09-10T19:25:44.585Z,21.34
2022-09-10T19:27:44.525Z,21.48
2022-09-10T19:28:58.522Z,21.45
2022-09-10T19:30:58.471Z,21.45
2022-09-10T19:32:58.683Z,21.43
2022-09-10T19:34:58.440Z,21.45
2022-09-10T19:36:58.525Z,21.37
2022-09-10T19:38:58.439Z,21.34
2022-09-10T19:40:58.447Z,21.23
2022-09-10T19:42:58.494Z,21.19
2022-09-10T19:44:08.030Z,21.19
2022-09-10T19:46:08.087Z,21.14
2022-09-10T19:48:08.079Z,21.01
2022-09-10T19:50:10.862Z,20.96
2022-09-10T19:52:08.156Z,20.97
2022-09-10T19:54:08.075Z,20.91
2022-09-10T19:56:08.086Z,20.89
2022-09-10T19:58:08.093Z,20.83
2022-09-10T20:00:00.008Z,20.77
2022-09-10T20:01:59.564Z,20.75
2022-09-10T20:03:59.464Z,20.71
2022-09-10T20:05:59.453Z,20.67
2022-09-10T20:07:59.522Z,20.67
2022-09-10T20:10:00.340Z,20.57
2022-09-10T20:11:59.583Z,20.67
2022-09-10T20:15:11.407Z,20.44
2022-09-10T20:17:11.415Z,20.48
2022-09-10T20:19:12.083Z,20.41
2022-09-10T20:21:11.404Z,20.33
2022-09-10T20:23:11.548Z,20.28
2022-09-10T20:25:11.535Z,20.31
2022-09-10T20:27:11.567Z,20.29
2022-09-10T20:29:52.313Z,20.23
2022-09-10T20:31:52.410Z,20.15
2022-09-10T20:33:52.553Z,20.14
2022-09-10T20:35:52.270Z,20.13
2022-09-10T20:37:52.455Z,20.1
2022-09-10T20:39:52.333Z,20.11
2022-09-10T20:41:52.793Z,19.96
2022-09-10T20:45:14.732Z,20.04
2022-09-10T20:47:14.802Z,20.07
2022-09-10T20:49:14.716Z,20.03
2022-09-10T20:51:14.709Z,19.93
2022-09-10T20:53:14.772Z,19.88
2022-09-10T20:55:14.788Z,19.92
2022-09-10T20:57:14.702Z,19.93
2022-09-10T20:59:56.392Z,19.92
2022-09-10T21:01:56.426Z,19.88
2022-09-10T21:03:56.555Z,19.79
2022-09-10T21:05:56.361Z,19.8
2022-09-10T21:07:56.368Z,19.68
2022-09-10T21:09:56.394Z,19.62
2022-09-10T21:11:56.446Z,19.56
2022-09-10T21:13:56.363Z,19.54
2022-09-10T21:16:01.413Z,19.54
2022-09-10T21:18:01.143Z,19.62
2022-09-10T21:20:01.121Z,19.62
2022-09-10T21:22:01.130Z,19.55
2022-09-10T21:24:01.124Z,19.49
2022-09-10T21:26:01.148Z,19.35
2022-09-10T21:28:01.141Z,19.28
2022-09-10T21:30:31.374Z,19.29
2022-09-10T21:32:31.353Z,19.4
2022-09-10T21:34:31.349Z,19.4
2022-09-10T21:36:31.408Z,19.37
2022-09-10T21:38:31.358Z,19.32
2022-09-10T21:40:31.410Z,19.31
2022-09-10T21:42:31.391Z,19.23
2022-09-10T21:46:09.737Z,19.21
2022-09-10T21:48:09.535Z,19.11
2022-09-10T21:50:09.536Z,19.08
2022-09-10T21:52:09.566Z,19.13
2022-09-10T21:54:09.517Z,19.06
2022-09-10T21:56:09.518Z,19.03
2022-09-10T21:58:09.563Z,19.02
2022-09-10T22:00:59.466Z,19.12
2022-09-10T22:02:59.489Z,19.19
2022-09-10T22:04:59.508Z,19.07
2022-09-10T22:06:59.470Z,19.16
2022-09-10T22:08:59.478Z,19.11
2022-09-10T22:10:59.466Z,19.14
2022-09-10T22:12:59.501Z,19.16
2022-09-10T22:16:26.531Z,19.24
2022-09-10T22:18:26.500Z,19.17
2022-09-10T22:20:26.539Z,19.27
2022-09-10T22:22:26.492Z,19.32
2022-09-10T22:24:26.542Z,19.33
2022-09-10T22:26:26.504Z,19.32
2022-09-10T22:28:26.479Z,19.28
2022-09-10T22:30:59.798Z,19.27
2022-09-10T22:32:59.752Z,19.28
2022-09-10T22:35:00.049Z,19.25
2022-09-10T22:36:59.793Z,19.25
2022-09-10T22:38:59.738Z,19.15
2022-09-10T22:40:59.733Z,19.18
2022-09-10T22:42:59.765Z,19.18
2022-09-10T22:44:59.723Z,19.17
2022-09-10T22:46:22.690Z,19.16
2022-09-10T22:48:22.668Z,19.24
2022-09-10T22:50:22.727Z,19.23
2022-09-10T22:52:22.715Z,19.19
2022-09-10T22:54:22.679Z,19.12
2022-09-10T22:56:22.659Z,19.1
2022-09-10T22:58:22.672Z,19.07
2022-09-10T23:02:12.328Z,19.05
2022-09-10T23:04:12.275Z,19.07
2022-09-10T23:06:12.302Z,19.09
2022-09-10T23:08:12.324Z,19.03
2022-09-10T23:10:12.280Z,19.04
2022-09-10T23:12:12.284Z,18.97
2022-09-10T23:14:12.332Z,18.94
2022-09-10T23:16:33.901Z,18.84
2022-09-10T23:18:33.888Z,18.71
2022-09-10T23:20:33.941Z,18.74
2022-09-10T23:22:33.909Z,18.73
2022-09-10T23:24:33.903Z,18.73
2022-09-10T23:26:33.907Z,18.63
2022-09-10T23:28:33.892Z,18.59
2022-09-10T23:30:33.891Z,18.57
2022-09-10T23:31:37.009Z,18.43
2022-09-10T23:33:36.963Z,18.49
2022-09-10T23:35:36.971Z,18.44
2022-09-10T23:37:36.970Z,18.4
2022-09-10T23:39:37.206Z,18.39
2022-09-10T23:41:36.938Z,18.25
2022-09-10T23:43:36.945Z,18.23
2022-09-10T23:45:36.987Z,18.24
2022-09-10T23:47:35.473Z,18.21
2022-09-10T23:49:35.436Z,18.21
2022-09-10T23:51:35.468Z,18.19
2022-09-10T23:53:35.443Z,18.18
2022-09-10T23:55:35.428Z,18.13
2022-09-10T23:57:35.476Z,18.12
2022-09-10T23:59:35.459Z,18.05
